PWSweather.com
Personal Weather Stations
Station Observations
SWHWX01
St AppolinardFR 38160

St AppolinardFR 38160

Lat: 45.191, Lon: 5.268

Elevation: 1460

Station Type: Davis Vantage Pro2 Plus

www.sweetwebhome.com/?show=wxindex

High Low Average
Temperature 82.3°F27.9°F 61.9°F16.6°F 72.7°F22.6°F
Dew Point 64.6°F18.1°F 56.6°F13.7°F 60.1°F15.6°F
Winds 4.4 mph -7.1 mph - Calm Calm 2.1 mph 3.4 mph
Wind Gusts 9.0 mph14.5 mph -- 3.8 mph6.1 mph
Humidity 85% 49% 66%
Pressure 30.02 in1016.60 in 29.89 in1012.20 in -
Precipitation 0.00 in0.00 in - -
Hour Temp Dew Point Humidity Winds Wind Gusts Pressure Precip Precip Rate Daily Precip Total
12:00 AM 69.0°F20.6°C 57.9°F14.4°C 68% 1.6 mph N2.6 kmh N 4.0 mph6.4 kmh 30.02 in1016.6 mb - 0.00 in0.0 mm 0.00 in0.0 mm
12:30 AM 67.7°F19.8°C 58.0°F14.4°C 71% 2.5 mph N4.0 kmh N 4.0 mph6.4 kmh 30.01 in1016.3 mb - 0.00 in0.0 mm 0.00 in0.0 mm
01:00 AM 66.8°F19.3°C 57.9°F14.4°C 73% 4.1 mph N6.6 kmh N 4.0 mph6.4 kmh 30.01 in1016.3 mb - 0.00 in0.0 mm 0.00 in0.0 mm
01:30 AM 66.4°F19.1°C 57.5°F14.2°C 73% 3.2 mph N5.1 kmh N 4.0 mph6.4 kmh 30.01 in1016.3 mb - 0.00 in0.0 mm 0.00 in0.0 mm
02:00 AM 65.6°F18.7°C 57.5°F14.2°C 75% 4.1 mph N6.6 kmh N 5.0 mph8.0 kmh 30.01 in1016.3 mb - 0.00 in0.0 mm 0.00 in0.0 mm
02:30 AM 64.2°F17.9°C 57.2°F14.0°C 78% Calm Calm -- 30.01 in1016.3 mb - 0.00 in0.0 mm 0.00 in0.0 mm
03:00 AM 63.5°F17.5°C 56.9°F13.8°C 79% 3.3 mph N5.3 kmh N 4.0 mph6.4 kmh 30.00 in1015.9 mb - 0.00 in0.0 mm 0.00 in0.0 mm
03:30 AM 64.4°F18.0°C 57.4°F14.1°C 78% Calm Calm -- 30.00 in1015.9 mb - 0.00 in0.0 mm 0.00 in0.0 mm
04:00 AM 63.1°F17.3°C 57.1°F13.9°C 81% 3.1 mph N5.0 kmh N 4.0 mph6.4 kmh 29.99 in1015.6 mb - 0.00 in0.0 mm 0.00 in0.0 mm
04:30 AM 61.9°F16.6°C 56.6°F13.7°C 83% 2.4 mph N3.9 kmh N 3.0 mph4.8 kmh 30.00 in1015.9 mb - 0.00 in0.0 mm 0.00 in0.0 mm
05:00 AM 62.5°F16.9°C 56.9°F13.8°C 82% 3.1 mph N5.0 kmh N 4.0 mph6.4 kmh 29.99 in1015.6 mb - 0.00 in0.0 mm 0.00 in0.0 mm
05:30 AM 62.9°F17.2°C 57.4°F14.1°C 82% 2.0 mph N3.2 kmh N 2.0 mph3.2 kmh 30.00 in1015.9 mb - 0.00 in0.0 mm 0.00 in0.0 mm
06:00 AM 62.7°F17.1°C 57.1°F13.9°C 82% 0.6 mph N1.0 kmh N 1.0 mph1.6 kmh 30.00 in1015.9 mb - 0.00 in0.0 mm 0.00 in0.0 mm
06:30 AM 62.5°F16.9°C 57.9°F14.4°C 85% Calm Calm -- 30.00 in1015.9 mb - 0.00 in0.0 mm 0.00 in0.0 mm
07:00 AM 64.3°F17.9°C 59.1°F15.1°C 83% Calm Calm -- 30.00 in1015.9 mb - 0.00 in0.0 mm 0.00 in0.0 mm
07:30 AM 68.4°F20.2°C 61.3°F16.3°C 78% 0.1 mph N0.2 kmh N 1.0 mph1.6 kmh 29.99 in1015.6 mb - 0.00 in0.0 mm 0.00 in0.0 mm
08:00 AM 68.5°F20.3°C 60.6°F15.9°C 76% 0.8 mph N1.3 kmh N 2.0 mph3.2 kmh 29.99 in1015.6 mb - 0.00 in0.0 mm 0.00 in0.0 mm
08:30 AM 70.5°F21.4°C 61.8°F16.6°C 74% 1.3 mph N2.1 kmh N 3.0 mph4.8 kmh 29.99 in1015.6 mb - 0.00 in0.0 mm 0.00 in0.0 mm
09:00 AM 71.3°F21.8°C 62.6°F17.0°C 74% 0.9 mph N1.4 kmh N 3.0 mph4.8 kmh 29.99 in1015.6 mb - 0.00 in0.0 mm 0.00 in0.0 mm
09:30 AM 72.1°F22.3°C 62.2°F16.8°C 71% 1.7 mph E2.7 kmh E 3.0 mph4.8 kmh 29.99 in1015.6 mb - 0.00 in0.0 mm 0.00 in0.0 mm
10:00 AM 73.0°F22.8°C 62.2°F16.8°C 69% 2.7 mph ESE4.3 kmh ESE 4.0 mph6.4 kmh 29.99 in1015.6 mb - 0.00 in0.0 mm 0.00 in0.0 mm
10:30 AM 74.1°F23.4°C 63.3°F17.4°C 69% 0.4 mph ESE0.6 kmh ESE 3.0 mph4.8 kmh 29.99 in1015.6 mb - 0.00 in0.0 mm 0.00 in0.0 mm
11:00 AM 75.3°F24.1°C 63.1°F17.3°C 66% 0.9 mph ESE1.4 kmh ESE 2.0 mph3.2 kmh 29.98 in1015.2 mb - 0.00 in0.0 mm 0.00 in0.0 mm
11:30 AM 76.8°F24.9°C 63.7°F17.6°C 64% 2.7 mph SE4.3 kmh SE 4.0 mph6.4 kmh 29.98 in1015.2 mb - 0.00 in0.0 mm 0.00 in0.0 mm
12:00 PM 77.1°F25.1°C 63.5°F17.5°C 63% 0.7 mph SE1.1 kmh SE 2.0 mph3.2 kmh 29.97 in1014.9 mb - 0.00 in0.0 mm 0.00 in0.0 mm
12:30 PM 78.4°F25.8°C 63.4°F17.4°C 60% 1.4 mph SSW2.3 kmh SSW 3.0 mph4.8 kmh 29.96 in1014.6 mb - 0.00 in0.0 mm 0.00 in0.0 mm
01:00 PM 79.1°F26.2°C 62.5°F16.9°C 57% 2.6 mph SSW4.2 kmh SSW 4.0 mph6.4 kmh 29.96 in1014.6 mb - 0.00 in0.0 mm 0.00 in0.0 mm
01:30 PM 80.0°F26.7°C 62.9°F17.2°C 56% 0.9 mph SW1.4 kmh SW 2.0 mph3.2 kmh 29.95 in1014.2 mb - 0.00 in0.0 mm 0.00 in0.0 mm
02:00 PM 80.8°F27.1°C 63.6°F17.6°C 56% 3.0 mph SW4.8 kmh SW 7.0 mph11.3 kmh 29.94 in1013.9 mb - 0.00 in0.0 mm 0.00 in0.0 mm
02:30 PM 81.6°F27.6°C 63.9°F17.7°C 55% 3.9 mph SW6.3 kmh SW 9.0 mph14.5 kmh 29.94 in1013.9 mb - 0.00 in0.0 mm 0.00 in0.0 mm
03:00 PM 82.3°F27.9°C 64.6°F18.1°C 55% 2.2 mph WSW3.5 kmh WSW 8.0 mph12.9 kmh 29.93 in1013.5 mb - 0.00 in0.0 mm 0.00 in0.0 mm
03:30 PM 81.8°F27.7°C 63.0°F17.2°C 53% 1.2 mph SW1.9 kmh SW 2.0 mph3.2 kmh 29.92 in1013.2 mb - 0.00 in0.0 mm 0.00 in0.0 mm
04:00 PM 82.0°F27.8°C 60.9°F16.1°C 49% 3.0 mph WSW4.8 kmh WSW 7.0 mph11.3 kmh 29.91 in1012.9 mb - 0.00 in0.0 mm 0.00 in0.0 mm
04:30 PM 81.8°F27.7°C 60.8°F16.0°C 49% 4.4 mph SW7.1 kmh SW 7.0 mph11.3 kmh 29.91 in1012.9 mb - 0.00 in0.0 mm 0.00 in0.0 mm
05:00 PM 81.3°F27.4°C 60.9°F16.1°C 50% 2.4 mph SW3.9 kmh SW 4.0 mph6.4 kmh 29.91 in1012.9 mb - 0.00 in0.0 mm 0.00 in0.0 mm
05:30 PM 80.7°F27.1°C 59.8°F15.4°C 49% 4.2 mph WSW6.8 kmh WSW 7.0 mph11.3 kmh 29.90 in1012.5 mb - 0.00 in0.0 mm 0.00 in0.0 mm
06:00 PM 80.1°F26.7°C 59.8°F15.4°C 50% 0.8 mph SW1.3 kmh SW 6.0 mph9.7 kmh 29.89 in1012.2 mb - 0.00 in0.0 mm 0.00 in0.0 mm
06:30 PM 80.3°F26.8°C 59.4°F15.2°C 49% 2.0 mph S3.2 kmh S 3.0 mph4.8 kmh 29.89 in1012.2 mb - 0.00 in0.0 mm 0.00 in0.0 mm
07:00 PM 78.2°F25.7°C 59.6°F15.3°C 53% 3.1 mph SW5.0 kmh SW 6.0 mph9.7 kmh 29.90 in1012.5 mb - 0.00 in0.0 mm 0.00 in0.0 mm
07:30 PM 76.9°F24.9°C 59.5°F15.3°C 55% 2.1 mph SW3.4 kmh SW 5.0 mph8.0 kmh 29.90 in1012.5 mb - 0.00 in0.0 mm 0.00 in0.0 mm
08:00 PM 76.1°F24.5°C 59.8°F15.4°C 57% 2.9 mph WSW4.7 kmh WSW 3.0 mph4.8 kmh 29.90 in1012.5 mb - 0.00 in0.0 mm 0.00 in0.0 mm
08:30 PM 75.3°F24.1°C 59.5°F15.3°C 58% 3.0 mph WSW4.8 kmh WSW 5.0 mph8.0 kmh 29.91 in1012.9 mb - 0.00 in0.0 mm 0.00 in0.0 mm
09:00 PM 75.1°F23.9°C 60.2°F15.7°C 60% 2.4 mph WSW3.9 kmh WSW 4.0 mph6.4 kmh 29.92 in1013.2 mb - 0.00 in0.0 mm 0.00 in0.0 mm
09:30 PM 74.3°F23.5°C 60.0°F15.6°C 61% 3.6 mph WSW5.8 kmh WSW 6.0 mph9.7 kmh 29.92 in1013.2 mb - 0.00 in0.0 mm 0.00 in0.0 mm
10:00 PM 73.1°F22.8°C 59.8°F15.4°C 63% 2.4 mph WSW3.9 kmh WSW 4.0 mph6.4 kmh 29.93 in1013.5 mb - 0.00 in0.0 mm 0.00 in0.0 mm
10:30 PM 72.5°F22.5°C 59.2°F15.1°C 63% 3.2 mph WSW5.1 kmh WSW 6.0 mph9.7 kmh 29.93 in1013.5 mb - 0.00 in0.0 mm 0.00 in0.0 mm
11:00 PM 72.2°F22.3°C 58.0°F14.4°C 61% 1.7 mph WSW2.7 kmh WSW 3.0 mph4.8 kmh 29.94 in1013.9 mb - 0.00 in0.0 mm 0.00 in0.0 mm
11:30 PM 71.4°F21.9°C 57.7°F14.3°C 62% 3.0 mph WSW4.8 kmh WSW 4.0 mph6.4 kmh 29.94 in1013.9 mb - 0.00 in0.0 mm 0.00 in0.0 mm